MA23 weather

North Bay Heliport
Osterville, Massachusetts, United States

Public forecast

Using degrees Fahrenheit for public forecast. Weather courtesy of forecast.io.

METAR (pilot weather report)

Closest report is Cape Cod Coast Guard Air Station, 5.8 nm (10.7 km) WNW. Retrieved 2019/09/16 06:55 UTC (23 minutes ago):

KFMH 160655Z 27003KT 10SM OVC065 16/16 A3003

TAF (pilot weather forecast)

Closest forecast is Cape Cod Coast Guard Air Station, 5.8 nm (10.7 km) WNW. Retrieved 2019/09/16 06:36 UTC (42 minutes ago):

TAF KFMH 160535Z 1606/1706 27003KT P6SM FEW250 FM160800 32004KT P6SM SCT250 FM161100 36005KT P6SM SCT250 FM161500 03005KT P6SM SCT120 FM161800 08005KT P6SM SCT250 FM161900 12004KT P6SM SCT250